createdAt,value
2017-05-27T00:00:09.470Z,18.70
2017-05-27T00:02:36.845Z,18.70
2017-05-27T00:05:04.661Z,18.70
2017-05-27T00:07:32.065Z,18.60
2017-05-27T00:09:59.373Z,18.60
2017-05-27T00:12:27.836Z,18.60
2017-05-27T00:14:55.209Z,18.40
2017-05-27T00:17:22.548Z,18.30
2017-05-27T00:19:49.848Z,18.40
2017-05-27T00:22:17.202Z,18.20
2017-05-27T00:24:44.436Z,18.20
2017-05-27T00:27:11.753Z,18.10
2017-05-27T00:29:39.111Z,18.10
2017-05-27T00:32:06.617Z,18.10
2017-05-27T00:34:33.849Z,18.10
2017-05-27T00:37:01.146Z,18.00
2017-05-27T00:39:28.465Z,18.00
2017-05-27T00:41:55.928Z,18.00
2017-05-27T00:44:23.301Z,17.90
2017-05-27T00:46:51.609Z,17.80
2017-05-27T00:49:18.941Z,17.90
2017-05-27T00:51:46.277Z,17.80
2017-05-27T00:54:13.668Z,17.70
2017-05-27T00:56:41.170Z,17.70
2017-05-27T00:59:08.461Z,17.70
2017-05-27T01:01:35.697Z,17.70
2017-05-27T01:04:02.996Z,17.80
2017-05-27T01:06:30.454Z,17.70
2017-05-27T01:08:57.799Z,17.70
2017-05-27T01:11:24.991Z,17.60
2017-05-27T01:13:52.303Z,17.60
2017-05-27T01:16:19.637Z,17.50
2017-05-27T01:18:47.491Z,17.40
2017-05-27T01:21:14.846Z,17.50
2017-05-27T01:23:42.217Z,17.50
2017-05-27T01:26:09.645Z,17.50
2017-05-27T01:28:37.020Z,17.40
2017-05-27T01:31:04.325Z,17.30
2017-05-27T01:33:31.729Z,17.40
2017-05-27T01:35:59.060Z,17.30
2017-05-27T01:38:26.397Z,17.30
2017-05-27T01:40:53.805Z,17.30
2017-05-27T01:43:21.234Z,17.10
2017-05-27T01:45:48.657Z,17.00
2017-05-27T01:48:16.002Z,16.90
2017-05-27T01:50:43.417Z,16.80
2017-05-27T01:53:10.728Z,16.80
2017-05-27T01:55:38.001Z,16.80
2017-05-27T01:58:05.349Z,16.90
2017-05-27T02:00:32.722Z,16.80
2017-05-27T02:03:00.052Z,16.80
2017-05-27T02:05:27.505Z,16.70
2017-05-27T02:07:55.001Z,16.70
2017-05-27T02:10:22.349Z,16.60
2017-05-27T02:12:49.616Z,16.60
2017-05-27T02:15:16.890Z,16.60
2017-05-27T02:17:44.434Z,16.60
2017-05-27T02:20:11.873Z,16.60
2017-05-27T02:22:39.422Z,16.70
2017-05-27T02:25:06.651Z,16.60
2017-05-27T02:27:34.038Z,16.60
2017-05-27T02:30:01.394Z,16.50
2017-05-27T02:32:28.721Z,16.40
2017-05-27T02:34:56.070Z,16.30
2017-05-27T02:37:23.254Z,16.40
2017-05-27T02:39:50.576Z,16.40
2017-05-27T02:42:17.890Z,16.30
2017-05-27T02:44:45.248Z,16.40
2017-05-27T02:47:12.597Z,16.40
2017-05-27T02:49:39.201Z,16.40
2017-05-27T02:52:06.573Z,16.30
2017-05-27T02:54:34.080Z,16.30
2017-05-27T02:57:01.511Z,16.30
2017-05-27T02:59:28.873Z,16.20
2017-05-27T03:01:56.217Z,16.40
2017-05-27T03:04:23.433Z,16.40
2017-05-27T03:09:24.828Z,16.30
2017-05-27T03:11:52.184Z,16.40
2017-05-27T03:14:19.532Z,16.30
2017-05-27T03:16:46.876Z,16.20
2017-05-27T03:19:14.101Z,16.10
2017-05-27T03:21:41.435Z,16.20
2017-05-27T03:24:08.769Z,16.00
2017-05-27T03:26:36.101Z,16.00
2017-05-27T03:29:02.621Z,16.00
2017-05-27T03:31:29.945Z,15.90
2017-05-27T03:33:57.401Z,15.90
2017-05-27T03:36:24.708Z,16.00
2017-05-27T03:38:52.074Z,16.00
2017-05-27T03:41:19.432Z,15.90
2017-05-27T03:43:46.823Z,15.90
2017-05-27T03:46:14.269Z,15.90
2017-05-27T03:48:41.635Z,16.00
2017-05-27T03:51:08.978Z,15.90
2017-05-27T03:53:36.336Z,16.00
2017-05-27T03:56:03.701Z,16.00
2017-05-27T03:58:31.041Z,15.90
2017-05-27T04:00:58.244Z,15.90
2017-05-27T04:03:25.577Z,15.90
2017-05-27T04:05:53.250Z,15.90
2017-05-27T04:08:20.587Z,15.90
2017-05-27T04:10:48.199Z,16.00
2017-05-27T04:13:15.533Z,16.00
2017-05-27T04:15:42.943Z,15.90
2017-05-27T04:18:10.311Z,16.00
2017-05-27T04:20:37.624Z,16.00
2017-05-27T04:23:04.980Z,15.90
2017-05-27T04:25:32.227Z,16.00
2017-05-27T04:27:59.661Z,16.10
2017-05-27T04:30:27.048Z,16.10
2017-05-27T04:32:54.509Z,16.20
2017-05-27T04:35:21.798Z,16.30
2017-05-27T04:37:49.132Z,16.20
2017-05-27T04:40:16.452Z,16.30
2017-05-27T04:42:43.692Z,16.30
2017-05-27T04:45:11.048Z,16.40
2017-05-27T04:47:38.076Z,16.40
2017-05-27T04:50:05.409Z,16.60
2017-05-27T04:52:32.777Z,16.60
2017-05-27T04:55:00.101Z,16.60
2017-05-27T04:57:27.419Z,16.70
2017-05-27T04:59:54.733Z,16.70
2017-05-27T05:02:22.087Z,16.70
2017-05-27T05:04:49.437Z,16.80
2017-05-27T05:07:16.787Z,16.90
2017-05-27T05:09:44.114Z,16.90
2017-05-27T05:12:11.492Z,17.00
2017-05-27T05:14:38.732Z,17.20
2017-05-27T05:17:06.005Z,17.20
2017-05-27T05:19:33.321Z,17.30
2017-05-27T05:22:00.664Z,17.50
2017-05-27T05:24:28.201Z,17.50
2017-05-27T05:26:55.517Z,17.70
2017-05-27T05:29:22.845Z,17.80
2017-05-27T05:31:50.301Z,18.00
2017-05-27T05:34:17.654Z,18.20
2017-05-27T05:36:44.964Z,18.40
2017-05-27T05:39:12.293Z,18.50
2017-05-27T05:41:39.557Z,18.70
2017-05-27T05:44:06.954Z,18.90
2017-05-27T05:46:34.272Z,19.10
2017-05-27T05:49:01.740Z,19.20
2017-05-27T05:51:29.084Z,19.30
2017-05-27T05:53:56.354Z,19.40
2017-05-27T05:56:23.725Z,19.60
2017-05-27T05:58:52.708Z,19.70
2017-05-27T06:01:20.029Z,19.90
2017-05-27T06:03:47.347Z,20.10
2017-05-27T06:06:14.700Z,20.20
2017-05-27T06:08:42.049Z,20.30
2017-05-27T06:11:13.201Z,20.40
2017-05-27T06:13:40.496Z,20.50
2017-05-27T06:16:07.824Z,20.60
2017-05-27T06:18:35.151Z,20.70
2017-05-27T06:21:02.509Z,20.80
2017-05-27T06:23:29.769Z,20.90
2017-05-27T06:25:56.977Z,21.00
2017-05-27T06:28:24.710Z,21.10
2017-05-27T06:30:52.018Z,21.20
2017-05-27T06:33:20.001Z,21.30
2017-05-27T06:35:47.313Z,21.40
2017-05-27T06:38:14.654Z,21.60
2017-05-27T06:40:42.025Z,21.70
2017-05-27T06:43:08.645Z,21.70
2017-05-27T06:45:36.065Z,21.80
2017-05-27T06:48:03.442Z,22.00
2017-05-27T06:50:30.955Z,22.00
2017-05-27T06:52:58.320Z,22.10
2017-05-27T06:55:25.728Z,22.20
2017-05-27T06:57:53.152Z,22.40
2017-05-27T07:00:20.368Z,22.50
2017-05-27T07:02:47.702Z,22.50
2017-05-27T07:05:15.023Z,22.70
2017-05-27T07:07:42.366Z,22.80
2017-05-27T07:10:09.956Z,22.90
2017-05-27T07:12:37.170Z,23.10
2017-05-27T07:15:04.497Z,23.10
2017-05-27T07:17:31.872Z,23.30
2017-05-27T07:19:59.241Z,23.50
2017-05-27T07:22:26.578Z,23.60
2017-05-27T07:24:53.934Z,23.70
2017-05-27T07:27:20.522Z,23.80
2017-05-27T07:29:47.821Z,24.10
2017-05-27T07:32:15.076Z,24.10
2017-05-27T07:34:42.527Z,24.30
2017-05-27T07:37:10.014Z,24.30
2017-05-27T07:39:37.318Z,24.50
2017-05-27T07:42:04.673Z,24.60
2017-05-27T07:44:31.901Z,24.80
2017-05-27T07:46:59.213Z,24.80
2017-05-27T07:49:26.525Z,25.00
2017-05-27T07:51:53.862Z,25.10
2017-05-27T07:54:21.102Z,25.30
2017-05-27T07:56:48.461Z,25.40
2017-05-27T07:59:15.153Z,25.40
2017-05-27T08:01:42.585Z,25.70
2017-05-27T08:04:10.176Z,26.10
2017-05-27T08:06:37.626Z,26.90
2017-05-27T08:09:05.089Z,28.20
2017-05-27T08:11:32.873Z,30.10
2017-05-27T08:14:00.669Z,31.30
2017-05-27T08:16:28.299Z,33.30
2017-05-27T08:18:55.677Z,34.90
2017-05-27T08:21:22.961Z,36.50
2017-05-27T08:23:50.344Z,35.60
2017-05-27T08:26:17.575Z,37.50
2017-05-27T08:28:50.482Z,36.60
2017-05-27T08:31:17.795Z,37.50
2017-05-27T08:34:02.025Z,36.80
2017-05-27T08:36:29.978Z,37.60
2017-05-27T08:38:57.300Z,38.00
2017-05-27T08:41:24.485Z,37.80
2017-05-27T08:43:51.734Z,38.30
2017-05-27T08:46:19.073Z,38.20
2017-05-27T08:51:20.440Z,35.30
2017-05-27T08:53:47.883Z,34.40
2017-05-27T08:56:15.159Z,33.00
2017-05-27T08:58:42.500Z,31.70
2017-05-27T09:01:16.164Z,31.00
2017-05-27T09:03:43.457Z,30.40
2017-05-27T09:06:10.744Z,29.80
2017-05-27T09:08:38.086Z,29.30
2017-05-27T09:11:05.421Z,29.10
2017-05-27T09:13:38.729Z,28.80
2017-05-27T09:16:05.800Z,28.70
2017-05-27T09:18:33.159Z,28.30
2017-05-27T09:21:00.456Z,28.30
2017-05-27T09:23:27.796Z,28.30
2017-05-27T09:25:55.264Z,28.20
2017-05-27T09:28:22.581Z,28.30
2017-05-27T09:30:49.893Z,28.30
2017-05-27T09:33:17.168Z,28.40
2017-05-27T09:35:44.355Z,28.50
2017-05-27T09:38:11.686Z,28.30
2017-05-27T09:40:39.169Z,28.30
2017-05-27T09:43:06.748Z,28.40
2017-05-27T09:45:34.200Z,28.40
2017-05-27T09:48:01.513Z,28.50
2017-05-27T09:50:31.012Z,28.30
2017-05-27T09:52:58.355Z,28.30
2017-05-27T09:55:25.694Z,28.30
2017-05-27T09:57:53.017Z,28.40
2017-05-27T10:00:20.327Z,28.40
2017-05-27T10:02:47.644Z,28.70
2017-05-27T10:05:14.950Z,28.80
2017-05-27T10:07:42.124Z,28.60
2017-05-27T10:10:11.012Z,28.70
2017-05-27T10:12:45.118Z,28.50
2017-05-27T10:15:12.413Z,28.70
2017-05-27T10:17:39.731Z,28.70
2017-05-27T10:20:11.144Z,28.90
2017-05-27T10:22:38.437Z,28.90
2017-05-27T10:25:05.841Z,29.10
2017-05-27T10:27:33.160Z,29.10
2017-05-27T10:30:00.357Z,29.30
2017-05-27T10:32:27.568Z,29.50
2017-05-27T10:34:54.833Z,29.40
2017-05-27T10:37:22.380Z,29.40
2017-05-27T10:39:49.724Z,29.10
2017-05-27T10:42:17.061Z,29.30
2017-05-27T10:44:44.404Z,29.10
2017-05-27T10:47:11.829Z,29.30
2017-05-27T10:49:39.113Z,29.40
2017-05-27T10:52:06.287Z,29.30
2017-05-27T10:54:33.720Z,29.40
2017-05-27T10:57:01.092Z,29.30
2017-05-27T10:59:28.484Z,29.20
2017-05-27T11:01:55.670Z,29.20
2017-05-27T11:04:23.001Z,29.30
2017-05-27T11:06:51.090Z,29.30
2017-05-27T11:09:18.432Z,29.30
2017-05-27T11:11:45.700Z,29.40
2017-05-27T11:14:13.028Z,29.40
2017-05-27T11:16:40.321Z,29.60
2017-05-27T11:19:12.805Z,29.40
2017-05-27T11:21:40.133Z,29.40
2017-05-27T11:24:07.379Z,29.40
2017-05-27T11:26:34.701Z,29.50
2017-05-27T11:29:02.002Z,29.50
2017-05-27T11:31:29.326Z,29.50
2017-05-27T11:33:57.074Z,29.50
2017-05-27T11:36:23.561Z,29.50
2017-05-27T11:38:50.886Z,29.60
2017-05-27T11:41:18.208Z,29.60
2017-05-27T11:43:45.417Z,29.60
2017-05-27T11:46:12.736Z,29.70
2017-05-27T11:48:39.985Z,29.60
2017-05-27T11:51:07.301Z,29.70
2017-05-27T11:53:34.618Z,29.90
2017-05-27T11:56:08.925Z,30.10
2017-05-27T11:58:36.258Z,29.90
2017-05-27T12:01:05.374Z,29.90
2017-05-27T12:03:32.753Z,29.90
2017-05-27T12:06:00.089Z,30.10
2017-05-27T12:08:27.454Z,30.20
2017-05-27T12:10:54.753Z,30.30
2017-05-27T12:13:28.739Z,30.20
2017-05-27T12:15:56.089Z,30.10
2017-05-27T12:18:23.429Z,30.20
2017-05-27T12:20:50.713Z,30.10
2017-05-27T12:23:18.046Z,30.10
2017-05-27T12:25:45.405Z,30.10
2017-05-27T12:28:12.745Z,30.10
2017-05-27T12:30:40.061Z,30.30
2017-05-27T12:33:07.393Z,30.30
2017-05-27T12:35:34.757Z,30.30
2017-05-27T12:38:02.069Z,30.50
2017-05-27T12:40:28.572Z,30.50
2017-05-27T12:42:55.148Z,30.70
2017-05-27T12:45:22.453Z,30.80
2017-05-27T12:47:49.783Z,30.80
2017-05-27T12:50:17.107Z,30.90
2017-05-27T12:52:44.433Z,30.90
2017-05-27T12:55:11.725Z,30.90
2017-05-27T12:57:39.048Z,30.90
2017-05-27T13:00:06.364Z,30.90
2017-05-27T13:02:33.580Z,30.80
2017-05-27T13:05:00.877Z,30.70
2017-05-27T13:07:28.277Z,30.90
2017-05-27T13:09:55.596Z,30.90
2017-05-27T13:12:22.950Z,30.80
2017-05-27T13:14:50.183Z,30.80
2017-05-27T13:17:17.493Z,30.90
2017-05-27T13:19:44.832Z,30.80
2017-05-27T13:22:12.044Z,30.90
2017-05-27T13:24:39.332Z,31.00
2017-05-27T13:27:06.649Z,31.00
2017-05-27T13:29:33.972Z,31.00
2017-05-27T13:32:01.273Z,31.10
2017-05-27T13:34:28.562Z,31.00
2017-05-27T13:36:55.912Z,31.00
2017-05-27T13:39:23.228Z,31.10
2017-05-27T13:41:50.574Z,31.20
2017-05-27T13:44:17.914Z,31.20
2017-05-27T13:46:45.244Z,31.10
2017-05-27T13:49:12.561Z,31.10
2017-05-27T13:51:39.948Z,31.00
2017-05-27T13:54:07.279Z,31.00
2017-05-27T13:56:34.519Z,30.90
2017-05-27T13:59:01.822Z,30.90
2017-05-27T14:01:29.469Z,31.10
2017-05-27T14:03:56.791Z,31.10
2017-05-27T14:06:24.125Z,31.20
2017-05-27T14:08:51.564Z,31.20
2017-05-27T14:11:18.903Z,31.30
2017-05-27T14:13:46.206Z,31.40
2017-05-27T14:16:12.772Z,31.30
2017-05-27T14:18:40.073Z,31.30
2017-05-27T14:21:07.381Z,31.20
2017-05-27T14:23:34.735Z,31.20
2017-05-27T14:26:02.040Z,31.30
2017-05-27T14:28:29.351Z,31.00
2017-05-27T14:30:56.697Z,30.90
2017-05-27T14:33:24.013Z,30.80
2017-05-27T14:35:51.378Z,30.60
2017-05-27T14:38:27.939Z,30.60
2017-05-27T14:40:56.365Z,30.60
2017-05-27T14:43:23.706Z,30.50
2017-05-27T14:45:50.281Z,30.50
2017-05-27T14:48:17.806Z,30.50
2017-05-27T14:50:45.040Z,30.50
2017-05-27T14:53:12.337Z,30.40
2017-05-27T14:55:39.717Z,30.30
2017-05-27T14:58:07.072Z,30.30
2017-05-27T15:00:34.395Z,30.20
2017-05-27T15:03:01.842Z,30.20
2017-05-27T15:05:29.200Z,30.20
2017-05-27T15:07:56.401Z,30.10
2017-05-27T15:10:23.572Z,30.20
2017-05-27T15:12:50.909Z,30.30
2017-05-27T15:15:18.467Z,30.40
2017-05-27T15:17:45.764Z,30.30
2017-05-27T15:20:13.100Z,30.10
2017-05-27T15:22:40.421Z,30.10
2017-05-27T15:25:07.793Z,30.00
2017-05-27T15:27:35.139Z,30.00
2017-05-27T15:30:02.515Z,30.00
2017-05-27T15:32:29.846Z,30.10
2017-05-27T15:34:57.145Z,30.20
2017-05-27T15:37:24.461Z,30.10
2017-05-27T15:39:51.835Z,30.10
2017-05-27T15:42:19.220Z,30.00
2017-05-27T15:44:46.418Z,30.00
2017-05-27T15:47:13.781Z,29.90
2017-05-27T15:49:41.133Z,29.90
2017-05-27T15:52:08.467Z,30.00
2017-05-27T15:54:35.719Z,29.90
2017-05-27T15:57:02.970Z,29.90
2017-05-27T15:59:30.181Z,30.00
2017-05-27T16:01:57.534Z,29.90
2017-05-27T16:04:25.087Z,29.90
2017-05-27T16:06:52.318Z,29.90
2017-05-27T16:09:19.675Z,29.90
2017-05-27T16:11:46.973Z,30.00
2017-05-27T16:14:14.308Z,29.90
2017-05-27T16:16:41.605Z,29.90
2017-05-27T16:19:08.977Z,30.00
2017-05-27T16:21:36.282Z,29.90
2017-05-27T16:24:03.634Z,29.90
2017-05-27T16:26:30.987Z,29.70
2017-05-27T16:28:58.297Z,29.70
2017-05-27T16:31:25.846Z,29.70
2017-05-27T16:33:53.161Z,29.80
2017-05-27T16:36:19.611Z,29.80
2017-05-27T16:38:46.934Z,29.90
2017-05-27T16:41:14.122Z,29.80
2017-05-27T16:43:41.353Z,29.90
2017-05-27T16:46:08.661Z,29.80
2017-05-27T16:48:36.008Z,29.70
2017-05-27T16:51:03.309Z,29.60
2017-05-27T16:53:30.656Z,29.50
2017-05-27T16:55:57.970Z,29.40
2017-05-27T16:58:25.289Z,29.40
2017-05-27T17:00:54.986Z,29.40
2017-05-27T17:03:22.297Z,29.40
2017-05-27T17:05:49.621Z,29.30
2017-05-27T17:08:16.985Z,29.20
2017-05-27T17:10:44.273Z,29.20
2017-05-27T17:13:11.600Z,29.20
2017-05-27T17:15:38.908Z,29.20
2017-05-27T17:18:06.220Z,29.10
2017-05-27T17:20:33.606Z,29.10
2017-05-27T17:23:00.705Z,29.00
2017-05-27T17:25:28.058Z,29.00
2017-05-27T17:27:55.286Z,29.00
2017-05-27T17:30:22.671Z,28.90
2017-05-27T17:32:49.962Z,28.90
2017-05-27T17:35:17.257Z,28.80
2017-05-27T17:37:44.537Z,28.70
2017-05-27T17:40:11.954Z,28.80
2017-05-27T17:42:39.259Z,28.70
2017-05-27T17:45:06.502Z,28.80
2017-05-27T17:47:33.824Z,28.60
2017-05-27T17:50:01.036Z,28.60
2017-05-27T17:52:28.413Z,28.50
2017-05-27T17:54:55.883Z,28.40
2017-05-27T17:57:23.284Z,28.30
2017-05-27T17:59:50.552Z,28.30
2017-05-27T18:02:17.878Z,28.20
2017-05-27T18:04:45.197Z,28.30
2017-05-27T18:07:12.496Z,28.20
2017-05-27T18:09:39.057Z,28.20
2017-05-27T18:12:06.369Z,28.10
2017-05-27T18:14:33.837Z,27.80
2017-05-27T18:17:01.238Z,27.70
2017-05-27T18:19:28.610Z,27.60
2017-05-27T18:21:55.870Z,27.50
2017-05-27T18:24:23.092Z,27.50
2017-05-27T18:26:50.429Z,27.40
2017-05-27T18:29:17.765Z,27.30
2017-05-27T18:31:45.149Z,27.30
2017-05-27T18:34:12.445Z,27.20
2017-05-27T18:36:39.809Z,27.10
2017-05-27T18:39:07.165Z,26.90
2017-05-27T18:41:34.565Z,26.80
2017-05-27T18:44:01.769Z,26.60
2017-05-27T18:46:30.010Z,26.50
2017-05-27T18:48:57.313Z,26.40
2017-05-27T18:51:24.638Z,26.30
2017-05-27T18:53:52.022Z,26.20
2017-05-27T18:56:19.309Z,26.20
2017-05-27T18:58:46.629Z,26.10
2017-05-27T19:01:13.849Z,25.90
2017-05-27T19:03:41.137Z,25.90
2017-05-27T19:06:08.357Z,25.80
2017-05-27T19:08:35.757Z,25.70
2017-05-27T19:11:03.069Z,25.60
2017-05-27T19:13:30.408Z,25.50
2017-05-27T19:16:12.427Z,25.40
2017-05-27T19:18:39.770Z,25.30
2017-05-27T19:21:06.932Z,25.30
2017-05-27T19:23:34.309Z,25.10
2017-05-27T19:26:01.688Z,25.10
2017-05-27T19:28:29.655Z,25.00
2017-05-27T19:30:56.978Z,25.10
2017-05-27T19:33:24.337Z,25.10
2017-05-27T19:35:51.805Z,25.10
2017-05-27T19:38:19.234Z,25.00
2017-05-27T19:40:46.728Z,25.00
2017-05-27T19:43:14.065Z,25.00
2017-05-27T19:45:41.542Z,24.80
2017-05-27T19:48:08.884Z,24.80
2017-05-27T19:50:36.166Z,24.70
2017-05-27T19:53:03.694Z,24.50
2017-05-27T19:55:31.005Z,24.40
2017-05-27T19:57:58.481Z,24.20
2017-05-27T20:00:25.975Z,24.20
2017-05-27T20:02:53.320Z,24.10
2017-05-27T20:05:20.676Z,24.20
2017-05-27T20:07:48.143Z,24.10
2017-05-27T20:10:15.553Z,24.00
2017-05-27T20:12:43.097Z,24.00
2017-05-27T20:15:11.597Z,24.00
2017-05-27T20:17:38.842Z,24.00
2017-05-27T20:20:06.145Z,23.90
2017-05-27T20:22:33.449Z,23.90
2017-05-27T20:25:00.748Z,23.70
2017-05-27T20:27:28.014Z,23.90
2017-05-27T20:29:55.337Z,23.90
2017-05-27T20:32:22.665Z,23.90
2017-05-27T20:37:24.042Z,23.70
2017-05-27T20:39:51.369Z,23.60
2017-05-27T20:42:18.601Z,23.40
2017-05-27T20:44:46.125Z,23.40
2017-05-27T20:47:13.439Z,23.40
2017-05-27T20:49:40.748Z,23.50
2017-05-27T20:52:08.057Z,23.50
2017-05-27T20:54:35.332Z,23.60
2017-05-27T20:57:02.774Z,23.60
2017-05-27T20:59:30.181Z,23.60
2017-05-27T21:01:56.819Z,23.60
2017-05-27T21:04:24.038Z,23.70
2017-05-27T21:06:51.427Z,23.70
2017-05-27T21:09:18.681Z,23.70
2017-05-27T21:11:45.977Z,23.60
2017-05-27T21:14:13.294Z,23.50
2017-05-27T21:16:40.685Z,23.50
2017-05-27T21:19:08.113Z,23.50
2017-05-27T21:21:35.497Z,23.50
2017-05-27T21:24:02.948Z,23.50
2017-05-27T21:26:30.227Z,23.40
2017-05-27T21:28:57.617Z,23.40
2017-05-27T21:31:25.049Z,23.50
2017-05-27T21:33:52.143Z,23.40
2017-05-27T21:36:19.473Z,23.50
2017-05-27T21:38:46.587Z,23.50
2017-05-27T21:41:13.708Z,23.50
2017-05-27T21:43:41.289Z,23.40
2017-05-27T21:46:09.817Z,23.50
2017-05-27T21:48:37.108Z,23.70
2017-05-27T21:51:03.620Z,23.30
2017-05-27T21:53:30.786Z,23.50
2017-05-27T21:55:58.037Z,23.40
2017-05-27T21:58:25.148Z,23.40
2017-05-27T22:00:52.294Z,23.40
2017-05-27T22:03:19.377Z,23.50
2017-05-27T22:05:46.477Z,23.50
2017-05-27T22:08:13.541Z,23.60
2017-05-27T22:10:40.612Z,23.50
2017-05-27T22:13:07.764Z,23.50
2017-05-27T22:15:34.850Z,23.50
2017-05-27T22:18:02.804Z,23.40
2017-05-27T22:20:29.936Z,23.40
2017-05-27T22:22:57.108Z,23.30
2017-05-27T22:25:24.201Z,23.30
2017-05-27T22:27:51.274Z,23.30
2017-05-27T22:30:18.642Z,23.20
2017-05-27T22:32:45.841Z,23.30
2017-05-27T22:35:12.969Z,23.30
2017-05-27T22:37:40.134Z,23.30
2017-05-27T22:40:07.228Z,23.30
2017-05-27T22:42:34.302Z,23.30
2017-05-27T22:45:01.431Z,23.30
2017-05-27T22:47:28.509Z,23.30
2017-05-27T22:49:55.572Z,23.30
2017-05-27T22:52:22.642Z,23.20
2017-05-27T22:54:49.707Z,23.20
2017-05-27T22:57:16.041Z,23.20
2017-05-27T22:59:43.190Z,23.20
2017-05-27T23:02:10.285Z,23.20
2017-05-27T23:04:37.405Z,23.20
2017-05-27T23:07:04.654Z,23.20
2017-05-27T23:09:31.849Z,23.20
2017-05-27T23:11:58.944Z,23.10
2017-05-27T23:14:26.020Z,23.10
2017-05-27T23:16:53.097Z,23.20
2017-05-27T23:19:20.221Z,23.30
2017-05-27T23:21:47.344Z,23.20
2017-05-27T23:24:14.430Z,23.20
2017-05-27T23:26:41.853Z,23.20
2017-05-27T23:29:08.952Z,23.20
2017-05-27T23:31:35.297Z,23.20
2017-05-27T23:34:02.400Z,23.10
2017-05-27T23:36:29.644Z,23.10
2017-05-27T23:38:56.705Z,23.20
2017-05-27T23:41:23.873Z,23.20
2017-05-27T23:43:50.949Z,23.20
2017-05-27T23:46:18.013Z,23.10
2017-05-27T23:48:45.081Z,23.10
2017-05-27T23:51:11.421Z,23.10
2017-05-27T23:53:38.517Z,23.10
2017-05-27T23:58:39.288Z,23.10
